createdAt,value
2019-03-24T00:02:15.139Z,9.31
2019-03-24T00:04:43.575Z,9.33
2019-03-24T00:07:11.978Z,9.34
2019-03-24T00:09:40.515Z,9.35
2019-03-24T00:12:08.999Z,9.31
2019-03-24T00:14:37.581Z,9.30
2019-03-24T00:17:06.108Z,9.28
2019-03-24T00:19:34.513Z,9.29
2019-03-24T00:22:02.939Z,9.25
2019-03-24T00:24:31.401Z,9.25
2019-03-24T00:26:59.838Z,9.24
2019-03-24T00:29:28.316Z,9.25
2019-03-24T00:31:56.786Z,9.24
2019-03-24T00:34:25.203Z,9.24
2019-03-24T00:36:53.631Z,9.23
2019-03-24T00:39:22.061Z,9.22
2019-03-24T00:41:50.449Z,9.21
2019-03-24T00:44:18.899Z,9.20
2019-03-24T00:46:47.381Z,9.18
2019-03-24T00:49:15.794Z,9.16
2019-03-24T00:51:44.371Z,9.14
2019-03-24T00:54:12.842Z,9.12
2019-03-24T00:56:41.478Z,9.12
2019-03-24T00:59:10.019Z,9.11
2019-03-24T01:01:38.606Z,9.13
2019-03-24T01:04:07.141Z,9.12
2019-03-24T01:06:35.642Z,9.11
2019-03-24T01:09:06.033Z,9.09
2019-03-24T01:11:34.543Z,9.08
2019-03-24T01:14:03.120Z,9.09
2019-03-24T01:16:31.730Z,9.07
2019-03-24T01:19:00.184Z,9.05
2019-03-24T01:21:28.716Z,9.02
2019-03-24T01:23:57.119Z,8.99
2019-03-24T01:26:25.543Z,8.99
2019-03-24T01:28:54.002Z,9.00
2019-03-24T01:31:22.464Z,8.98
2019-03-24T01:33:50.880Z,8.97
2019-03-24T01:36:19.368Z,8.96
2019-03-24T01:38:47.932Z,8.90
2019-03-24T01:41:16.406Z,8.92
2019-03-24T01:43:44.921Z,8.91
2019-03-24T01:46:13.421Z,8.92
2019-03-24T01:48:41.839Z,8.89
2019-03-24T01:51:10.261Z,8.84
2019-03-24T01:53:38.685Z,8.82
2019-03-24T01:56:07.097Z,8.86
2019-03-24T01:58:35.518Z,8.81
2019-03-24T02:01:04.000Z,8.85
2019-03-24T02:03:32.542Z,8.83
2019-03-24T02:06:00.983Z,8.81
2019-03-24T02:08:29.411Z,8.81
2019-03-24T02:10:57.813Z,8.82
2019-03-24T02:13:29.110Z,8.77
2019-03-24T02:15:57.532Z,8.78
2019-03-24T02:18:25.995Z,8.79
2019-03-24T02:20:54.373Z,8.76
2019-03-24T02:23:22.857Z,8.76
2019-03-24T02:25:51.278Z,8.70
2019-03-24T02:28:19.702Z,8.68
2019-03-24T02:30:48.098Z,8.65
2019-03-24T02:33:16.508Z,8.61
2019-03-24T02:35:44.966Z,8.62
2019-03-24T02:38:13.366Z,8.63
2019-03-24T02:40:41.817Z,8.58
2019-03-24T02:43:10.239Z,8.60
2019-03-24T02:45:38.648Z,8.63
2019-03-24T02:48:07.114Z,8.61
2019-03-24T02:50:35.571Z,8.61
2019-03-24T02:53:04.059Z,8.56
2019-03-24T02:55:32.451Z,8.54
2019-03-24T02:58:00.905Z,8.56
2019-03-24T03:00:29.281Z,8.57
2019-03-24T03:02:57.705Z,8.54
2019-03-24T03:05:26.102Z,8.55
2019-03-24T03:07:54.560Z,8.54
2019-03-24T03:10:22.955Z,8.48
2019-03-24T03:12:51.363Z,8.48
2019-03-24T03:15:19.798Z,8.49
2019-03-24T03:17:48.269Z,8.47
2019-03-24T03:20:16.814Z,8.49
2019-03-24T03:22:45.296Z,8.48
2019-03-24T03:25:13.997Z,8.48
2019-03-24T03:27:42.405Z,8.44
2019-03-24T03:30:11.349Z,8.42
2019-03-24T03:32:39.831Z,8.41
2019-03-24T03:35:09.011Z,8.40
2019-03-24T03:37:37.462Z,8.40
2019-03-24T03:40:06.848Z,8.32
2019-03-24T03:42:35.354Z,8.35
2019-03-24T03:45:05.006Z,8.36
2019-03-24T03:47:33.421Z,8.34
2019-03-24T03:50:01.822Z,8.28
2019-03-24T03:52:30.239Z,8.24
2019-03-24T03:54:58.678Z,8.20
2019-03-24T03:57:27.094Z,8.19
2019-03-24T03:59:55.518Z,8.20
2019-03-24T04:02:23.941Z,8.23
2019-03-24T04:04:52.372Z,8.23
2019-03-24T04:07:20.754Z,8.22
2019-03-24T04:09:49.235Z,8.17
2019-03-24T04:12:17.673Z,8.12
2019-03-24T04:14:46.149Z,8.17
2019-03-24T04:17:14.628Z,8.13
2019-03-24T04:19:43.041Z,8.15
2019-03-24T04:22:11.546Z,8.12
2019-03-24T04:24:40.041Z,8.13
2019-03-24T04:27:08.452Z,8.06
2019-03-24T04:29:36.851Z,8.08
2019-03-24T04:32:05.356Z,8.10
2019-03-24T04:34:33.763Z,8.12
2019-03-24T04:37:02.172Z,8.14
2019-03-24T04:39:30.622Z,8.18
2019-03-24T04:41:59.052Z,8.09
2019-03-24T04:44:27.461Z,8.10
2019-03-24T04:46:55.859Z,8.10
2019-03-24T04:49:24.342Z,8.05
2019-03-24T04:51:52.743Z,7.97
2019-03-24T04:54:21.187Z,7.96
2019-03-24T04:56:49.565Z,8.01
2019-03-24T04:59:17.981Z,8.01
2019-03-24T05:01:46.429Z,7.92
2019-03-24T05:04:17.500Z,7.88
2019-03-24T05:06:45.991Z,7.81
2019-03-24T05:09:15.342Z,7.79
2019-03-24T05:11:43.743Z,7.83
2019-03-24T05:14:12.165Z,7.80
2019-03-24T05:16:40.577Z,7.80
2019-03-24T05:19:09.000Z,7.77
2019-03-24T05:21:37.435Z,7.81
2019-03-24T05:24:05.841Z,7.75
2019-03-24T05:26:34.260Z,7.76
2019-03-24T05:29:02.672Z,7.61
2019-03-24T05:31:31.121Z,7.67
2019-03-24T05:33:59.558Z,7.68
2019-03-24T05:36:27.964Z,7.76
2019-03-24T05:38:56.395Z,7.71
2019-03-24T05:41:24.807Z,7.67
2019-03-24T05:43:53.332Z,7.64
2019-03-24T05:46:21.778Z,7.61
2019-03-24T05:48:50.188Z,7.58
2019-03-24T05:51:18.609Z,7.58
2019-03-24T05:53:47.012Z,7.58
2019-03-24T05:56:15.472Z,7.60
2019-03-24T05:58:43.915Z,7.52
2019-03-24T06:01:12.336Z,7.46
2019-03-24T06:03:40.731Z,7.39
2019-03-24T06:06:09.134Z,7.31
2019-03-24T06:08:37.557Z,7.30
2019-03-24T06:11:06.050Z,7.32
2019-03-24T06:13:34.653Z,7.32
2019-03-24T06:16:03.112Z,7.31
2019-03-24T06:18:31.525Z,7.28
2019-03-24T06:20:59.947Z,7.37
2019-03-24T06:23:28.358Z,7.42
2019-03-24T06:25:56.796Z,7.44
2019-03-24T06:28:25.256Z,7.48
2019-03-24T06:30:53.697Z,7.40
2019-03-24T06:33:22.124Z,7.37
2019-03-24T06:35:50.501Z,7.41
2019-03-24T06:38:18.981Z,7.38
2019-03-24T06:40:47.370Z,7.41
2019-03-24T06:43:15.815Z,7.36
2019-03-24T06:45:44.224Z,7.30
2019-03-24T06:48:12.676Z,7.34
2019-03-24T06:50:41.112Z,7.30
2019-03-24T06:53:09.577Z,7.32
2019-03-24T06:55:37.975Z,7.33
2019-03-24T06:58:06.376Z,7.38
2019-03-24T07:00:34.775Z,7.38
2019-03-24T07:03:03.169Z,7.42
2019-03-24T07:05:31.592Z,7.52
2019-03-24T07:07:59.991Z,7.53
2019-03-24T07:10:28.397Z,7.58
2019-03-24T07:12:56.815Z,7.57
2019-03-24T07:15:25.254Z,7.61
2019-03-24T07:17:53.665Z,7.66
2019-03-24T07:20:22.069Z,7.67
2019-03-24T07:22:50.548Z,7.70
2019-03-24T07:25:19.101Z,5.86
2019-03-24T07:27:47.507Z,7.75
2019-03-24T07:30:16.055Z,7.66
2019-03-24T07:32:44.445Z,7.68
2019-03-24T07:35:13.764Z,7.76
2019-03-24T07:37:42.169Z,7.87
2019-03-24T07:40:10.863Z,7.92
2019-03-24T07:42:39.289Z,7.93
2019-03-24T07:45:08.437Z,7.93
2019-03-24T07:47:36.858Z,7.96
2019-03-24T07:50:09.223Z,7.98
2019-03-24T07:52:40.654Z,8.01
2019-03-24T07:55:09.957Z,7.94
2019-03-24T07:57:38.361Z,7.96
2019-03-24T08:00:09.297Z,8.01
2019-03-24T08:02:37.702Z,8.03
2019-03-24T08:05:06.454Z,8.11
2019-03-24T08:07:34.881Z,8.12
2019-03-24T08:10:05.148Z,8.13
2019-03-24T08:12:33.579Z,8.11
2019-03-24T08:15:03.594Z,8.09
2019-03-24T08:17:31.972Z,8.11
2019-03-24T08:20:00.402Z,8.07
2019-03-24T08:22:28.948Z,8.09
2019-03-24T08:24:57.342Z,8.13
2019-03-24T08:27:25.776Z,8.15
2019-03-24T08:29:54.198Z,8.21
2019-03-24T08:32:22.598Z,8.28
2019-03-24T08:34:51.048Z,8.37
2019-03-24T08:37:19.527Z,8.45
2019-03-24T08:39:47.918Z,8.58
2019-03-24T08:42:16.421Z,8.67
2019-03-24T08:44:44.817Z,8.76
2019-03-24T08:47:13.272Z,8.80
2019-03-24T08:49:41.691Z,8.82
2019-03-24T08:52:10.091Z,8.73
2019-03-24T08:54:38.501Z,8.86
2019-03-24T08:57:06.960Z,8.90
2019-03-24T08:59:36.904Z,8.87
2019-03-24T09:02:05.408Z,8.90
2019-03-24T09:04:35.476Z,8.91
2019-03-24T09:07:03.875Z,9.03
2019-03-24T09:09:32.310Z,9.06
2019-03-24T09:12:00.802Z,9.04
2019-03-24T09:14:29.224Z,8.99
2019-03-24T09:16:57.617Z,8.85
2019-03-24T09:19:26.025Z,8.82
2019-03-24T09:21:54.502Z,8.86
2019-03-24T09:24:22.916Z,8.89
2019-03-24T09:26:51.401Z,9.02
2019-03-24T09:29:19.822Z,8.94
2019-03-24T09:31:48.255Z,8.99
2019-03-24T09:34:16.682Z,8.98
2019-03-24T09:36:45.081Z,9.21
2019-03-24T09:39:15.003Z,9.22
2019-03-24T09:41:45.001Z,9.28
2019-03-24T09:44:16.473Z,9.31
2019-03-24T09:46:44.897Z,9.34
2019-03-24T09:49:15.992Z,9.44
2019-03-24T09:51:44.531Z,9.46
2019-03-24T09:54:12.967Z,9.38
2019-03-24T09:56:41.538Z,9.48
2019-03-24T09:59:09.939Z,9.55
2019-03-24T10:01:41.319Z,9.58
2019-03-24T10:04:09.739Z,9.54
2019-03-24T10:06:38.128Z,9.51
2019-03-24T10:09:07.181Z,9.51
2019-03-24T10:11:35.594Z,9.49
2019-03-24T10:14:05.566Z,9.54
2019-03-24T10:16:34.124Z,9.64
2019-03-24T10:19:13.285Z,9.59
2019-03-24T10:21:32.723Z,9.63
2019-03-24T10:24:01.143Z,9.63
2019-03-24T10:26:29.547Z,9.71
2019-03-24T10:28:57.983Z,9.90
2019-03-24T10:31:27.914Z,10.09
2019-03-24T10:33:56.350Z,10.15
2019-03-24T10:36:24.776Z,10.13
2019-03-24T10:38:53.208Z,8.44
2019-03-24T10:41:21.642Z,10.08
2019-03-24T10:43:50.044Z,10.01
2019-03-24T10:46:18.458Z,10.03
2019-03-24T10:48:46.874Z,10.01
2019-03-24T10:51:15.272Z,9.98
2019-03-24T10:53:43.669Z,9.88
2019-03-24T10:56:12.074Z,9.89
2019-03-24T10:58:40.465Z,10.03
2019-03-24T11:01:08.930Z,10.18
2019-03-24T11:03:37.309Z,10.35
2019-03-24T11:06:05.723Z,10.34
2019-03-24T11:08:34.127Z,10.29
2019-03-24T11:11:02.721Z,10.33
2019-03-24T11:13:31.131Z,10.41
2019-03-24T11:15:59.772Z,10.33
2019-03-24T11:18:28.245Z,10.32
2019-03-24T11:20:56.651Z,10.33
2019-03-24T11:23:25.095Z,10.49
2019-03-24T11:25:53.567Z,10.65
2019-03-24T11:28:22.009Z,10.82
2019-03-24T11:30:50.471Z,10.90
2019-03-24T11:33:18.931Z,10.85
2019-03-24T11:35:47.354Z,10.83
2019-03-24T11:38:15.772Z,10.82
2019-03-24T11:40:44.194Z,10.72
2019-03-24T11:43:12.607Z,10.77
2019-03-24T11:45:41.035Z,10.80
2019-03-24T11:48:09.443Z,10.89
2019-03-24T11:50:37.909Z,10.95
2019-03-24T11:53:06.397Z,10.84
2019-03-24T11:55:34.786Z,10.89
2019-03-24T11:58:05.968Z,10.95
2019-03-24T12:00:34.985Z,11.03
2019-03-24T12:03:03.467Z,11.09
2019-03-24T12:05:32.020Z,11.17
2019-03-24T12:08:00.536Z,11.22
2019-03-24T12:10:28.927Z,11.29
2019-03-24T12:12:57.365Z,11.36
2019-03-24T12:15:28.511Z,11.38
2019-03-24T12:17:58.596Z,11.28
2019-03-24T12:20:27.192Z,11.30
2019-03-24T12:22:55.531Z,11.29
2019-03-24T12:25:23.959Z,11.29
2019-03-24T12:27:52.366Z,11.36
2019-03-24T12:30:20.928Z,11.37
2019-03-24T12:32:49.403Z,11.30
2019-03-24T12:35:17.909Z,11.57
2019-03-24T12:37:46.303Z,11.69
2019-03-24T12:40:14.969Z,11.74
2019-03-24T12:42:43.419Z,11.63
2019-03-24T12:45:13.389Z,11.62
2019-03-24T12:47:41.835Z,11.77
2019-03-24T12:50:11.011Z,11.98
2019-03-24T12:52:39.511Z,12.05
2019-03-24T12:55:08.444Z,12.30
2019-03-24T12:57:36.976Z,12.06
2019-03-24T13:00:10.662Z,11.94
2019-03-24T13:02:39.209Z,11.88
2019-03-24T13:05:09.072Z,12.19
2019-03-24T13:07:37.537Z,12.26
2019-03-24T13:10:09.550Z,12.61
2019-03-24T13:12:38.027Z,12.60
2019-03-24T13:15:08.067Z,12.15
2019-03-24T13:17:36.638Z,11.93
2019-03-24T13:20:06.741Z,11.85
2019-03-24T13:22:35.233Z,11.87
2019-03-24T13:25:05.484Z,11.93
2019-03-24T13:27:33.965Z,12.07
2019-03-24T13:30:02.386Z,11.84
2019-03-24T13:32:30.787Z,11.71
2019-03-24T13:34:59.194Z,11.63
2019-03-24T13:37:27.603Z,11.56
2019-03-24T13:39:56.027Z,11.54
2019-03-24T13:42:24.440Z,11.60
2019-03-24T13:44:52.855Z,11.55
2019-03-24T13:47:21.263Z,11.32
2019-03-24T13:49:49.671Z,11.47
2019-03-24T13:52:18.227Z,11.74
2019-03-24T13:54:46.695Z,11.74
2019-03-24T13:57:15.238Z,12.15
2019-03-24T13:59:43.644Z,12.49
2019-03-24T14:02:12.104Z,12.34
2019-03-24T14:04:40.533Z,12.42
2019-03-24T14:07:08.934Z,12.30
2019-03-24T14:09:37.427Z,12.20
2019-03-24T14:12:05.973Z,12.73
2019-03-24T14:14:34.378Z,12.83
2019-03-24T14:17:02.889Z,12.48
2019-03-24T14:19:31.293Z,12.70
2019-03-24T14:21:59.714Z,12.82
2019-03-24T14:24:28.144Z,12.83
2019-03-24T14:26:56.554Z,12.85
2019-03-24T14:29:27.074Z,12.74
2019-03-24T14:31:55.100Z,13.16
2019-03-24T14:34:23.587Z,13.03
2019-03-24T14:36:51.990Z,12.50
2019-03-24T14:39:20.469Z,12.40
2019-03-24T14:41:48.895Z,12.49
2019-03-24T14:44:17.335Z,12.23
2019-03-24T14:46:45.718Z,12.21
2019-03-24T14:49:14.188Z,12.18
2019-03-24T14:51:42.678Z,12.13
2019-03-24T14:54:11.149Z,12.01
2019-03-24T14:56:39.528Z,11.97
2019-03-24T14:59:07.961Z,11.89
2019-03-24T15:01:36.420Z,11.67
2019-03-24T15:04:04.846Z,11.68
2019-03-24T15:06:33.253Z,11.60
2019-03-24T15:09:01.664Z,11.66
2019-03-24T15:11:30.077Z,11.61
2019-03-24T15:13:58.488Z,11.56
2019-03-24T15:16:26.906Z,11.62
2019-03-24T15:18:55.323Z,11.58
2019-03-24T15:21:23.732Z,11.55
2019-03-24T15:23:52.145Z,11.58
2019-03-24T15:26:20.565Z,11.56
2019-03-24T15:28:48.977Z,11.47
2019-03-24T15:31:19.119Z,11.54
2019-03-24T15:33:47.546Z,11.67
2019-03-24T15:36:15.958Z,11.74
2019-03-24T15:38:44.373Z,11.61
2019-03-24T15:41:12.808Z,11.54
2019-03-24T15:43:41.286Z,11.59
2019-03-24T15:46:09.753Z,11.64
2019-03-24T15:48:38.115Z,11.66
2019-03-24T15:51:16.351Z,11.56
2019-03-24T15:53:36.667Z,11.33
2019-03-24T15:56:05.819Z,11.14
2019-03-24T15:58:36.976Z,11.13
2019-03-24T16:01:05.464Z,11.24
2019-03-24T16:03:33.880Z,11.25
2019-03-24T16:06:02.280Z,11.36
2019-03-24T16:08:30.701Z,11.47
2019-03-24T16:11:00.832Z,11.40
2019-03-24T16:13:29.275Z,11.30
2019-03-24T16:15:57.727Z,11.32
2019-03-24T16:18:31.376Z,11.41
2019-03-24T16:20:59.886Z,11.52
2019-03-24T16:23:32.721Z,11.48
2019-03-24T16:26:01.227Z,11.40
2019-03-24T16:28:35.282Z,11.37
2019-03-24T16:31:06.530Z,11.34
2019-03-24T16:33:36.245Z,11.36
2019-03-24T16:36:06.166Z,11.40
2019-03-24T16:38:48.828Z,11.33
2019-03-24T16:41:11.937Z,11.18
2019-03-24T16:43:46.313Z,11.14
2019-03-24T16:46:16.433Z,11.22
2019-03-24T16:48:44.858Z,11.17
2019-03-24T16:51:16.305Z,11.09
2019-03-24T16:53:47.932Z,11.05
2019-03-24T16:56:32.557Z,10.94
2019-03-24T16:59:04.000Z,10.80
2019-03-24T17:01:35.167Z,10.76
2019-03-24T17:04:05.297Z,10.75
2019-03-24T17:06:42.295Z,10.75
2019-03-24T17:09:18.245Z,10.64
2019-03-24T17:11:51.572Z,10.62
2019-03-24T17:14:20.904Z,10.58
2019-03-24T17:16:52.366Z,10.52
2019-03-24T17:19:20.785Z,10.56
2019-03-24T17:21:52.160Z,10.51
2019-03-24T17:24:20.606Z,10.45
2019-03-24T17:26:49.040Z,10.38
2019-03-24T17:29:17.524Z,10.33
2019-03-24T17:31:46.003Z,10.30
2019-03-24T17:34:17.701Z,10.25
2019-03-24T17:36:52.015Z,10.21
2019-03-24T17:39:20.443Z,10.18
2019-03-24T17:41:54.836Z,10.16
2019-03-24T17:44:26.302Z,10.14
2019-03-24T17:46:54.852Z,10.12
2019-03-24T17:49:24.149Z,10.03
2019-03-24T17:52:00.964Z,9.99
2019-03-24T17:54:28.623Z,9.93
2019-03-24T17:57:03.556Z,9.91
2019-03-24T17:59:41.059Z,9.91
2019-03-24T18:02:14.641Z,9.86
2019-03-24T18:04:50.545Z,9.85
2019-03-24T18:07:20.515Z,9.81
2019-03-24T18:09:48.909Z,9.76
2019-03-24T18:12:21.009Z,9.74
2019-03-24T18:14:49.091Z,9.70
2019-03-24T18:17:18.504Z,9.68
2019-03-24T18:19:50.916Z,9.59
2019-03-24T18:22:19.302Z,9.52
2019-03-24T18:24:53.620Z,9.46
2019-03-24T18:27:31.043Z,9.46
2019-03-24T18:29:59.892Z,9.41
2019-03-24T18:32:28.400Z,9.39
2019-03-24T18:34:56.830Z,9.34
2019-03-24T18:37:26.869Z,9.34
2019-03-24T18:39:55.262Z,9.28
2019-03-24T18:42:23.751Z,9.25
2019-03-24T18:44:53.690Z,9.16
2019-03-24T18:47:22.140Z,9.13
2019-03-24T18:49:50.560Z,9.15
2019-03-24T18:52:22.831Z,9.11
2019-03-24T18:54:52.178Z,9.04
2019-03-24T18:57:23.577Z,8.91
2019-03-24T18:59:52.022Z,8.85
2019-03-24T19:02:20.448Z,8.81
2019-03-24T19:04:48.839Z,8.85
2019-03-24T19:07:17.256Z,8.83
2019-03-24T19:09:45.650Z,8.77
2019-03-24T19:12:14.127Z,8.73
2019-03-24T19:14:43.016Z,8.70
2019-03-24T19:17:11.426Z,8.66
2019-03-24T19:19:39.852Z,8.65
2019-03-24T19:22:08.425Z,8.59
2019-03-24T19:24:36.825Z,8.54
2019-03-24T19:27:05.435Z,8.53
2019-03-24T19:29:33.865Z,8.47
2019-03-24T19:32:02.342Z,8.44
2019-03-24T19:34:31.119Z,8.42
2019-03-24T19:36:59.670Z,8.40
2019-03-24T19:39:28.145Z,8.34
2019-03-24T19:41:56.572Z,8.30
2019-03-24T19:44:24.975Z,8.30
2019-03-24T19:46:53.429Z,8.26
2019-03-24T19:49:21.832Z,8.24
2019-03-24T19:51:50.352Z,8.23
2019-03-24T19:54:18.749Z,8.20
2019-03-24T19:56:47.239Z,8.18
2019-03-24T19:59:15.679Z,8.07
2019-03-24T20:01:44.083Z,8.04
2019-03-24T20:04:12.517Z,7.99
2019-03-24T20:06:40.899Z,7.99
2019-03-24T20:09:11.308Z,7.91
2019-03-24T20:11:41.203Z,7.92
2019-03-24T20:14:09.591Z,7.91
2019-03-24T20:16:38.039Z,7.80
2019-03-24T20:19:06.476Z,7.75
2019-03-24T20:21:34.902Z,7.70
2019-03-24T20:24:03.376Z,7.69
2019-03-24T20:26:31.792Z,7.65
2019-03-24T20:29:00.200Z,7.59
2019-03-24T20:31:28.650Z,7.58
2019-03-24T20:33:57.050Z,7.53
2019-03-24T20:36:25.494Z,7.45
2019-03-24T20:38:53.893Z,7.42
2019-03-24T20:41:22.326Z,7.43
2019-03-24T20:43:50.757Z,7.36
2019-03-24T20:46:19.145Z,7.38
2019-03-24T20:48:47.612Z,7.33
2019-03-24T20:51:16.037Z,7.30
2019-03-24T20:53:44.456Z,7.31
2019-03-24T20:56:12.889Z,7.20
2019-03-24T20:58:41.326Z,7.23
2019-03-24T21:01:09.759Z,7.16
2019-03-24T21:03:38.157Z,7.18
2019-03-24T21:06:06.654Z,7.10
2019-03-24T21:08:35.070Z,7.06
2019-03-24T21:11:03.482Z,7.07
2019-03-24T21:13:31.894Z,7.06
2019-03-24T21:16:00.313Z,7.00
2019-03-24T21:18:28.730Z,6.97
2019-03-24T21:20:57.147Z,6.99
2019-03-24T21:23:29.795Z,6.96
2019-03-24T21:25:55.762Z,6.94
2019-03-24T21:28:24.203Z,6.90
2019-03-24T21:30:52.615Z,6.91
2019-03-24T21:33:21.026Z,6.84
2019-03-24T21:35:49.528Z,6.77
2019-03-24T21:38:17.949Z,6.72
2019-03-24T21:40:46.363Z,6.74
2019-03-24T21:43:14.884Z,6.74
2019-03-24T21:45:43.731Z,6.75
2019-03-24T21:48:12.162Z,6.77
2019-03-24T21:50:40.606Z,6.72
2019-03-24T21:53:09.089Z,6.72
2019-03-24T21:55:37.502Z,6.70
2019-03-24T21:58:05.980Z,6.69
2019-03-24T22:00:35.921Z,6.70
2019-03-24T22:03:04.687Z,6.63
2019-03-24T22:05:33.158Z,6.68
2019-03-24T22:08:01.653Z,6.64
2019-03-24T22:10:30.064Z,6.68
2019-03-24T22:12:58.539Z,6.62
2019-03-24T22:15:27.038Z,6.55
2019-03-24T22:17:55.595Z,6.52
2019-03-24T22:20:24.019Z,6.45
2019-03-24T22:22:52.412Z,6.44
2019-03-24T22:25:20.843Z,6.46
2019-03-24T22:27:49.262Z,6.43
2019-03-24T22:30:18.022Z,6.42
2019-03-24T22:32:46.489Z,6.37
2019-03-24T22:35:14.910Z,6.41
2019-03-24T22:37:43.333Z,6.44
2019-03-24T22:40:12.064Z,6.46
2019-03-24T22:42:40.464Z,6.43
2019-03-24T22:45:09.123Z,6.43
2019-03-24T22:47:37.523Z,6.35
2019-03-24T22:50:08.133Z,6.37
2019-03-24T22:52:37.117Z,6.36
2019-03-24T22:55:08.961Z,6.28
2019-03-24T22:57:37.417Z,6.15
2019-03-24T23:00:15.492Z,6.13
2019-03-24T23:02:43.908Z,6.09
2019-03-24T23:05:12.496Z,6.07
2019-03-24T23:07:40.920Z,6.11
2019-03-24T23:10:09.454Z,6.14
2019-03-24T23:12:37.885Z,6.16
2019-03-24T23:15:07.409Z,6.11
2019-03-24T23:17:36.091Z,6.05
2019-03-24T23:20:06.137Z,6.06
2019-03-24T23:22:34.641Z,6.05
2019-03-24T23:25:03.239Z,6.02
2019-03-24T23:27:31.667Z,6.07
2019-03-24T23:30:00.072Z,6.05
2019-03-24T23:32:28.546Z,6.09
2019-03-24T23:34:56.966Z,6.14
2019-03-24T23:37:25.375Z,6.12
2019-03-24T23:39:53.804Z,6.12
2019-03-24T23:42:22.268Z,6.16
2019-03-24T23:44:50.699Z,6.13
2019-03-24T23:47:19.088Z,6.14
2019-03-24T23:49:47.479Z,6.16
2019-03-24T23:52:15.892Z,6.21
2019-03-24T23:54:44.293Z,6.20
2019-03-24T23:57:12.688Z,6.23
2019-03-24T23:59:41.092Z,6.22
